METAR Data
IDs: Format: Raw Decoded Include TAF

Data at: 0112 UTC 20 Jan 2022

EDDW 200050Z 27011KT 9999 FEW032 03/M00 Q1017